Time;durP1;ratioP1;P1;durP2;ratioP2;P2;SDS_P1;SDS_P2;PMS_P1;PMS_P2;Temp;Humidity;BMP_temperature;BMP_pressure;BME280_temperature;BME280_humidity;BME280_pressure;Samples;Min_cycle;Max_cycle;Signal;HPM_P1;HPM_P2
2021/03/16 00:01:37;;;;;;;61.23;40.28;;;;;;;5.75;75.64;98301.94;1757412;79;21852;-39
2021/03/16 00:04:08;;;;;;;72.65;44.75;;;;;;;5.73;75.71;98303.63;1768604;80;21162;-40
2021/03/16 00:06:54;;;;;;;68.30;43.50;;;;;;;5.66;76.03;98300.21;1773165;80;21386;-40
2021/03/16 00:09:22;;;;;;;64.85;42.23;;;;;;;5.58;76.39;98289.11;1773150;80;21162;-40
2021/03/16 00:11:50;;;;;;;72.30;44.90;;;;;;;5.60;76.43;98292.80;1773292;80;20981;-40
2021/03/16 00:14:18;;;;;;;69.45;44.85;;;;;;;5.57;76.59;98294.83;1773281;80;21139;-40
2021/03/16 00:16:46;;;;;;;70.03;44.03;;;;;;;5.52;76.74;98295.09;1773235;80;21167;-40
2021/03/16 00:19:14;;;;;;;65.97;42.78;;;;;;;5.51;76.76;98282.25;1773289;80;21372;-40
2021/03/16 00:21:42;;;;;;;67.60;43.42;;;;;;;5.50;76.71;98288.75;1773115;80;21139;-40
2021/03/16 00:24:11;;;;;;;71.25;43.50;;;;;;;5.47;76.70;98290.78;1773186;80;21397;-40
2021/03/16 00:26:38;;;;;;;69.27;43.68;;;;;;;5.40;76.86;98283.92;1773322;80;21413;-40
2021/03/16 00:29:07;;;;;;;58.07;36.43;;;;;;;5.37;76.98;98293.26;1774702;80;21711;-41
2021/03/16 00:31:36;;;;;;;76.33;47.43;;;;;;;5.34;77.08;98286.66;1781826;80;21315;-40
2021/03/16 00:34:04;;;;;;;75.87;48.38;;;;;;;5.30;77.14;98292.52;1781641;80;21024;-40
2021/03/16 00:36:33;;;;;;;72.42;45.05;;;;;;;5.23;77.38;98284.30;1781796;80;21140;-40
2021/03/16 00:39:03;;;;;;;73.60;44.88;;;;;;;5.17;77.48;98283.81;1773374;80;21146;-40
2021/03/16 00:41:32;;;;;;;75.65;47.35;;;;;;;5.14;77.48;98281.80;1750865;81;21169;-41
2021/03/16 00:44:00;;;;;;;71.95;45.17;;;;;;;5.09;77.42;98274.01;1750690;81;21286;-40
2021/03/16 00:46:30;;;;;;;67.95;43.85;;;;;;;4.99;77.35;98279.13;1750674;81;21158;-40
2021/03/16 00:48:58;;;;;;;69.03;43.33;;;;;;;4.99;77.35;98279.13;1753415;79;21169;-40
2021/03/16 00:51:28;;;;;;;71.30;44.67;;;;;;;5.00;77.47;98274.77;1781787;80;20957;-40
2021/03/16 00:53:56;;;;;;;71.77;44.00;;;;;;;4.97;77.53;98271.44;1754100;80;21194;-40
2021/03/16 00:56:24;;;;;;;67.10;42.15;;;;;;;4.91;77.70;98263.43;1781646;80;21455;-40
2021/03/16 00:58:52;;;;;;;65.00;41.80;;;;;;;4.90;77.71;98269.14;1781586;80;21174;-40
2021/03/16 01:01:20;;;;;;;65.35;42.30;;;;;;;4.90;77.67;98267.80;1781754;80;21142;-40
2021/03/16 01:03:49;;;;;;;61.58;41.00;;;;;;;4.87;77.70;98272.53;1781768;80;21158;-40
2021/03/16 01:06:18;;;;;;;63.38;39.92;;;;;;;4.83;77.77;98260.93;1781775;80;21166;-40
2021/03/16 01:08:46;;;;;;;61.08;40.43;;;;;;;4.81;77.76;98261.27;1781759;80;21241;-40
2021/03/16 01:11:14;;;;;;;62.58;41.23;;;;;;;4.79;77.78;98268.91;1766889;80;21210;-40
2021/03/16 01:13:41;;;;;;;61.55;40.35;;;;;;;4.74;77.95;98267.23;1750764;81;21177;-40
2021/03/16 01:16:10;;;;;;;60.08;39.58;;;;;;;4.72;78.11;98272.19;1750921;81;21150;-40
2021/03/16 01:18:39;;;;;;;61.60;39.42;;;;;;;4.73;78.07;98264.36;1751124;81;21178;-40
2021/03/16 01:21:08;;;;;;;62.30;39.00;;;;;;;4.73;78.04;98264.92;1780041;80;21281;-40
2021/03/16 01:23:37;;;;;;;58.68;37.28;;;;;;;4.71;78.11;98261.23;1781773;80;21174;-40
2021/03/16 01:26:05;;;;;;;60.43;38.02;;;;;;;4.75;78.10;98263.99;1781791;80;20980;-40
2021/03/16 01:28:35;;;;;;;55.00;35.75;;;;;;;4.76;78.02;98263.66;1781816;80;21134;-40
2021/03/16 01:31:03;;;;;;;58.65;36.15;;;;;;;4.70;78.14;98255.64;1774992;80;21146;-40
2021/03/16 01:33:33;;;;;;;58.00;36.37;;;;;;;4.72;78.26;98266.04;1773789;80;22488;-40
2021/03/16 01:36:01;;;;;;;57.38;38.67;;;;;;;4.75;78.27;98263.99;1773180;80;21400;-40
2021/03/16 01:38:29;;;;;;;55.75;35.68;;;;;;;4.76;78.31;98263.66;1773179;80;21028;-40
2021/03/16 01:40:57;;;;;;;57.33;35.25;;;;;;;4.77;78.18;98265.22;1772838;79;21147;-40
2021/03/16 01:43:31;;;;;;;54.93;36.93;;;;;;;4.82;78.09;98261.48;1769773;80;21171;-40
2021/03/16 01:45:59;;;;;;;59.50;36.35;;;;;;;4.87;77.91;98260.45;1768374;80;21379;-40
2021/03/16 01:48:34;;;;;;;57.40;37.15;;;;;;;4.86;77.92;98265.59;1728884;82;21149;-40
2021/03/16 01:51:08;;;;;;;62.10;36.13;;;;;;;4.88;77.88;98262.01;1729027;83;21177;-40
2021/03/16 01:53:35;;;;;;;63.38;38.40;;;;;;;4.89;77.69;98254.92;1728920;83;21161;-40
2021/03/16 01:56:06;;;;;;;63.23;37.35;;;;;;;4.89;77.62;98254.17;1727902;82;26624;-40
2021/03/16 01:58:55;;;;;;;58.30;37.63;;;;;;;4.85;77.66;98250.05;1728975;83;23530;-40
2021/03/16 02:01:43;;;;;;;54.97;35.37;;;;;;;4.82;77.77;98254.78;1750334;80;21182;-40
2021/03/16 02:04:29;;;;;;;60.10;38.17;;;;;;;4.86;77.49;98253.52;1742635;82;21738;-40
2021/03/16 02:07:20;;;;;;;65.03;39.53;;;;;;;4.87;77.64;98254.52;1742765;82;21660;-40
2021/03/16 02:10:14;;;;;;;56.73;36.98;;;;;;;4.85;77.56;98255.97;1742813;80;21429;-40
2021/03/16 02:13:22;;;;;;;59.83;37.03;;;;;;;4.84;77.55;98253.09;1773292;80;23516;-40
2021/03/16 02:16:18;;;;;;;68.97;39.63;;;;;;;4.85;77.52;98260.00;1773233;80;21194;-40
2021/03/16 02:19:11;;;;;;;63.42;40.00;;;;;;;4.81;77.51;98258.02;1770220;80;21210;-40
2021/03/16 02:21:58;;;;;;;60.60;37.13;;;;;;;4.78;77.60;98260.07;1742528;82;21156;-40
2021/03/16 02:25:21;;;;;;;54.35;35.43;;;;;;;4.84;77.53;98255.78;1742665;82;21191;-40
2021/03/16 02:28:44;;;;;;;62.25;38.30;;;;;;;4.87;77.41;98259.88;1742590;82;21277;-40
2021/03/16 02:31:31;;;;;;;58.45;37.13;;;;;;;4.85;77.47;98264.81;1740870;81;21134;-40
2021/03/16 02:34:18;;;;;;;55.03;37.25;;;;;;;4.85;77.41;98258.66;1740789;82;21154;-40
2021/03/16 02:37:05;;;;;;;63.60;38.80;;;;;;;4.89;77.34;98260.89;1740691;82;21159;-40
2021/03/16 02:39:53;;;;;;;55.52;37.23;;;;;;;4.88;77.24;98262.01;1718143;82;21082;-40
2021/03/16 02:42:40;;;;;;;55.33;36.60;;;;;;;4.84;77.10;98264.62;1740763;82;21436;-40
2021/03/16 02:45:26;;;;;;;60.75;37.25;;;;;;;4.82;76.97;98260.14;1740636;82;21150;-40
2021/03/16 02:48:12;;;;;;;54.98;37.33;;;;;;;4.82;76.88;98254.78;1740628;82;21386;-40
2021/03/16 02:50:59;;;;;;;58.68;38.85;;;;;;;4.78;76.87;98262.75;1757214;81;21972;-40
2021/03/16 02:53:46;;;;;;;57.20;36.33;;;;;;;4.72;76.84;98256.08;1771416;81;21203;-41
2021/03/16 02:56:33;;;;;;;58.70;38.45;;;;;;;4.70;76.88;98261.56;1771303;81;23524;-40
2021/03/16 02:59:20;;;;;;;60.70;40.50;;;;;;;4.66;76.99;98254.78;1747986;81;21135;-40
2021/03/16 03:02:06;;;;;;;63.92;40.00;;;;;;;4.60;77.08;98256.16;1771320;81;21166;-40
2021/03/16 03:04:53;;;;;;;55.03;38.15;;;;;;;4.54;77.20;98264.27;1717902;82;21190;-40
2021/03/16 03:07:40;;;;;;;57.80;39.75;;;;;;;4.56;77.11;98259.33;1740852;81;21200;-41
2021/03/16 03:10:27;;;;;;;59.53;41.25;;;;;;;4.55;76.92;98248.36;1745315;81;23531;-40
2021/03/16 03:13:13;;;;;;;54.73;36.95;;;;;;;4.45;77.03;98255.61;1771393;81;21497;-40
2021/03/16 03:15:59;;;;;;;56.33;36.70;;;;;;;4.38;77.13;98252.73;1771411;81;21028;-40
2021/03/16 03:18:47;;;;;;;53.92;35.85;;;;;;;4.37;77.21;98247.16;1771317;81;21127;-40
2021/03/16 03:21:40;;;;;;;51.65;34.08;;;;;;;4.33;77.18;98242.27;1771433;81;21146;-40
2021/03/16 03:24:31;;;;;;;55.43;34.33;;;;;;;4.26;77.33;98243.44;1768019;81;21227;-40
2021/03/16 03:27:23;;;;;;;50.20;34.03;;;;;;;4.25;77.40;98245.90;1771608;81;21367;-40
2021/03/16 03:30:11;;;;;;;54.35;35.38;;;;;;;4.24;77.38;98243.77;1771531;80;21461;-41
2021/03/16 03:33:01;;;;;;;57.70;37.28;;;;;;;4.22;77.46;98243.89;1773090;80;21155;-40
2021/03/16 03:35:48;;;;;;;51.02;34.50;;;;;;;4.18;77.63;98248.38;1773221;80;21119;-40
2021/03/16 03:38:34;;;;;;;54.90;35.83;;;;;;;4.20;77.62;98239.45;1773241;80;21284;-40
2021/03/16 03:41:22;;;;;;;50.33;35.78;;;;;;;4.23;77.53;98242.77;1743384;80;21116;-40
2021/03/16 03:44:09;;;;;;;54.40;35.33;;;;;;;4.19;77.53;98251.29;1733795;82;21056;-40
2021/03/16 03:46:55;;;;;;;47.00;32.40;;;;;;;4.15;77.46;98249.08;1742477;82;21388;-40
2021/03/16 03:49:43;;;;;;;45.80;32.50;;;;;;;4.17;77.37;98252.97;1755903;80;21170;-40
2021/03/16 03:52:29;;;;;;;47.15;31.52;;;;;;;4.16;77.32;98252.77;1773156;80;21274;-41
2021/03/16 03:55:16;;;;;;;41.05;29.12;;;;;;;4.14;77.28;98262.27;1773198;80;21320;-40
2021/03/16 03:58:04;;;;;;;43.70;28.10;;;;;;;4.13;77.11;98258.80;1773331;80;21163;-40
2021/03/16 04:00:51;;;;;;;40.98;28.75;;;;;;;4.15;76.91;98260.59;1773175;79;21989;-40
2021/03/16 04:03:38;;;;;;;42.80;29.07;;;;;;;4.10;76.95;98252.02;1773210;80;21135;-40
2021/03/16 04:06:24;;;;;;;37.60;26.95;;;;;;;4.04;76.97;98252.04;1773244;80;21343;-41
2021/03/16 04:09:11;;;;;;;37.50;27.35;;;;;;;4.02;77.08;98252.38;1773128;80;21378;-40
2021/03/16 04:11:58;;;;;;;42.35;29.65;;;;;;;4.04;76.93;98246.12;1773175;80;21178;-41
2021/03/16 04:14:44;;;;;;;38.85;27.95;;;;;;;3.98;77.07;98246.70;1773186;80;21186;-40
2021/03/16 04:17:30;;;;;;;36.00;26.55;;;;;;;3.93;77.08;98239.69;1773289;80;21111;-40
2021/03/16 04:20:17;;;;;;;40.05;27.95;;;;;;;3.93;77.03;98245.83;1740830;82;21394;-41
2021/03/16 04:23:03;;;;;;;40.85;26.93;;;;;;;3.91;77.02;98248.09;1742363;82;21143;-40
2021/03/16 04:25:50;;;;;;;40.20;26.65;;;;;;;3.87;77.09;98251.20;1742609;82;21195;-40
2021/03/16 04:28:37;;;;;;;37.63;26.33;;;;;;;3.85;77.15;98247.33;1742518;82;21158;-40
2021/03/16 04:31:24;;;;;;;40.12;28.35;;;;;;;3.87;76.99;98242.41;1742525;82;21155;-40
2021/03/16 04:34:10;;;;;;;37.55;26.17;;;;;;;3.86;77.00;98241.63;1762983;81;21282;-40
2021/03/16 04:36:57;;;;;;;39.03;26.65;;;;;;;3.83;76.97;98239.61;1763055;81;21128;-40
2021/03/16 04:39:42;;;;;;;39.08;27.73;;;;;;;3.86;76.85;98241.63;1770315;80;21194;-40
2021/03/16 04:42:29;;;;;;;38.65;26.73;;;;;;;3.88;76.76;98240.71;1772505;80;21182;-40
2021/03/16 04:45:16;;;;;;;39.67;25.32;;;;;;;3.83;76.77;98238.27;1773160;80;21168;-40
2021/03/16 04:48:03;;;;;;;35.28;25.02;;;;;;;3.83;76.95;98235.59;1773164;80;21353;-40
2021/03/16 04:50:50;;;;;;;38.38;25.17;;;;;;;3.88;76.79;98236.69;1773224;80;21187;-40
2021/03/16 04:53:37;;;;;;;37.85;27.25;;;;;;;3.87;76.78;98235.13;1773360;80;21040;-40
2021/03/16 04:56:23;;;;;;;37.35;24.43;;;;;;;3.84;76.65;98242.52;1773351;80;21421;-40
2021/03/16 04:59:09;;;;;;;34.03;24.60;;;;;;;3.86;76.46;98252.91;1773285;80;21194;-40
2021/03/16 05:01:55;;;;;;;36.63;25.15;;;;;;;3.80;76.25;98241.65;1742700;82;21287;-40
2021/03/16 05:04:43;;;;;;;32.35;23.15;;;;;;;3.86;76.25;98251.02;1742467;82;21379;-40
2021/03/16 05:07:29;;;;;;;37.67;23.98;;;;;;;3.83;75.99;98244.98;1742740;82;21656;-40
2021/03/16 05:10:17;;;;;;;38.20;25.45;;;;;;;3.86;75.89;98246.99;1742711;82;21194;-40
2021/03/16 05:13:04;;;;;;;36.58;24.32;;;;;;;3.83;76.17;98256.25;1742618;82;21400;-40
2021/03/16 05:15:50;;;;;;;30.92;22.90;;;;;;;3.83;76.10;98262.40;1742741;82;21209;-40
2021/03/16 05:18:37;;;;;;;32.23;24.40;;;;;;;3.87;75.81;98259.84;1742657;82;21186;-40
2021/03/16 05:21:23;;;;;;;31.93;23.42;;;;;;;3.91;75.56;98261.49;1742706;82;21178;-40
2021/03/16 05:24:10;;;;;;;34.38;23.73;;;;;;;3.90;75.62;98262.61;1742612;82;21166;-40
2021/03/16 05:26:58;;;;;;;35.78;22.90;;;;;;;3.91;75.50;98269.53;1742588;82;21166;-40
2021/03/16 05:29:44;;;;;;;31.60;22.98;;;;;;;4.02;75.43;98275.75;1742598;82;21287;-40
2021/03/16 05:32:31;;;;;;;37.08;24.67;;;;;;;4.08;75.49;98279.72;1742587;82;21206;-40
2021/03/16 05:35:17;;;;;;;33.08;22.40;;;;;;;4.07;74.88;98279.50;1742719;82;21177;-41
2021/03/16 05:38:04;;;;;;;34.20;22.75;;;;;;;4.02;74.86;98266.37;1742746;82;21055;-41
2021/03/16 05:40:50;;;;;;;32.63;23.30;;;;;;;4.05;74.89;98271.81;1742682;82;21146;-40
2021/03/16 05:43:37;;;;;;;33.15;23.42;;;;;;;4.06;74.97;98279.30;1743364;79;21300;-40
2021/03/16 05:46:22;;;;;;;34.98;22.50;;;;;;;4.04;74.61;98276.17;1742674;82;21160;-40
2021/03/16 05:49:09;;;;;;;32.63;22.37;;;;;;;4.04;74.74;98277.52;1746464;79;21144;-40
2021/03/16 05:51:57;;;;;;;33.70;22.85;;;;;;;4.07;74.72;98272.80;1763319;81;21151;-40
2021/03/16 05:54:44;;;;;;;36.17;23.42;;;;;;;4.06;74.88;98269.92;1763197;81;21170;-40
2021/03/16 05:57:31;;;;;;;32.33;21.52;;;;;;;4.04;74.60;98273.49;1763243;81;23453;-40
2021/03/16 06:00:21;;;;;;;29.82;22.07;;;;;;;4.06;74.66;98277.97;1766786;80;21190;-41
2021/03/16 06:03:09;;;;;;;33.50;22.67;;;;;;;4.10;74.10;98274.25;1773351;80;21163;-41
2021/03/16 06:05:55;;;;;;;33.78;23.20;;;;;;;4.10;74.37;98268.11;1773236;80;21425;-40
2021/03/16 06:08:42;;;;;;;32.28;21.20;;;;;;;4.12;74.28;98273.89;1773355;80;21147;-40
2021/03/16 06:11:29;;;;;;;29.48;21.70;;;;;;;4.18;73.87;98283.25;1773143;80;21340;-40
2021/03/16 06:14:15;;;;;;;34.83;22.20;;;;;;;4.21;73.62;98286.02;1773270;80;21160;-40
2021/03/16 06:17:02;;;;;;;28.47;20.10;;;;;;;4.19;73.58;98288.28;1773234;80;21044;-40
2021/03/16 06:19:50;;;;;;;28.40;20.97;;;;;;;4.20;73.78;98291.75;1773269;80;21138;-41
2021/03/16 06:22:36;;;;;;;31.27;21.68;;;;;;;4.28;73.46;98295.61;1771979;80;21170;-41
2021/03/16 06:25:32;;;;;;;33.23;22.22;;;;;;;4.29;73.68;98287.79;1742678;82;21314;-41
2021/03/16 06:28:18;;;;;;;31.00;20.80;;;;;;;4.36;74.04;98286.62;1742715;82;21127;-40
2021/03/16 06:31:05;;;;;;;31.17;21.07;;;;;;;4.45;73.45;98288.38;1742714;82;20984;-41
2021/03/16 06:33:53;;;;;;;35.08;21.90;;;;;;;4.58;73.14;98283.14;1742540;82;21167;-40
2021/03/16 06:36:40;;;;;;;35.08;21.33;;;;;;;4.61;72.75;98277.07;1742636;82;21198;-40
2021/03/16 06:39:27;;;;;;;34.33;21.70;;;;;;;4.62;72.53;98278.64;1760743;79;21256;-40
2021/03/16 06:42:29;;;;;;;33.02;21.25;;;;;;;4.68;72.19;98279.95;1773408;80;21620;-40
2021/03/16 06:45:17;;;;;;;30.30;21.20;;;;;;;4.73;71.40;98280.47;1773415;80;21190;-40
2021/03/16 06:48:14;;;;;;;35.55;21.52;;;;;;;4.70;71.66;98284.39;1773315;80;21103;-40
2021/03/16 06:51:15;;;;;;;32.67;20.35;;;;;;;4.72;72.06;98305.75;1773111;80;21162;-40
2021/03/16 06:54:10;;;;;;;35.05;20.88;;;;;;;4.79;71.48;98300.54;1773395;80;21451;-40
2021/03/16 06:57:00;;;;;;;32.58;20.90;;;;;;;4.82;71.75;98293.71;1773287;80;21174;-40
2021/03/16 06:59:47;;;;;;;29.37;20.48;;;;;;;4.84;71.84;98290.12;1767799;80;21153;-40
2021/03/16 07:02:34;;;;;;;30.37;20.55;;;;;;;4.94;72.15;98288.83;1736355;82;21141;-40
2021/03/16 07:05:29;;;;;;;31.80;22.27;;;;;;;5.06;71.91;98284.68;1736421;82;21169;-40
2021/03/16 07:08:15;;;;;;;36.95;21.77;;;;;;;5.15;71.47;98289.30;1736292;82;21385;-40
2021/03/16 07:11:08;;;;;;;30.88;21.35;;;;;;;5.16;71.05;98283.59;1736135;82;21188;-40
2021/03/16 07:13:55;;;;;;;34.38;21.07;;;;;;;5.22;70.85;98285.45;1736241;82;21180;-40
2021/03/16 07:16:44;;;;;;;34.50;21.90;;;;;;;5.29;70.64;98293.65;1736298;82;21173;-40
2021/03/16 07:19:31;;;;;;;30.37;21.60;;;;;;;5.33;70.72;98299.88;1746585;80;21096;-40
2021/03/16 07:22:20;;;;;;;33.78;20.82;;;;;;;5.36;70.64;98305.13;1773273;80;23520;-40
2021/03/16 07:25:09;;;;;;;29.63;20.07;;;;;;;5.46;70.74;98305.94;1773482;80;21119;-40
2021/03/16 07:27:57;;;;;;;31.25;20.88;;;;;;;5.57;69.97;98300.98;1770523;79;21424;-40
2021/03/16 07:30:45;;;;;;;30.27;18.23;;;;;;;5.66;70.23;98305.59;1763288;81;21204;-41
2021/03/16 07:33:31;;;;;;;31.20;20.37;;;;;;;5.81;70.64;98299.19;1768040;81;21154;-40
2021/03/16 07:36:17;;;;;;;33.63;21.97;;;;;;;5.99;69.84;98307.08;1768584;81;21273;-40
2021/03/16 07:39:09;;;;;;;34.70;22.55;;;;;;;6.16;68.95;98305.84;1774324;79;21569;-40
2021/03/16 07:41:56;;;;;;;31.68;22.48;;;;;;;6.28;68.49;98302.45;1781418;80;21194;-41
2021/03/16 07:44:43;;;;;;;35.00;23.05;;;;;;;6.41;67.84;98288.25;1781458;80;21993;-40
2021/03/16 07:47:37;;;;;;;34.43;22.73;;;;;;;6.51;67.42;98297.87;1781606;80;21161;-41
2021/03/16 07:50:30;;;;;;;35.35;22.58;;;;;;;6.65;67.61;98295.98;1776033;79;23414;-40
2021/03/16 07:53:26;;;;;;;34.00;21.97;;;;;;;6.81;67.46;98295.30;1766711;79;21143;-41
2021/03/16 07:56:13;;;;;;;35.60;22.13;;;;;;;6.94;66.56;98291.84;1763319;81;21159;-41
2021/03/16 07:59:01;;;;;;;35.05;22.85;;;;;;;6.92;66.42;98280.07;1763379;81;21147;-40
2021/03/16 08:01:49;;;;;;;38.20;22.32;;;;;;;7.07;66.75;98282.41;1781265;80;21134;-40
2021/03/16 08:04:40;;;;;;;34.05;21.02;;;;;;;7.19;65.78;98283.58;1781444;80;23507;-40
2021/03/16 08:07:30;;;;;;;33.40;21.20;;;;;;;6.92;66.03;98226.78;1781494;80;21120;-40
2021/03/16 08:10:29;;;;;;;30.23;20.95;;;;;;;7.41;65.42;98281.38;1781499;80;21032;-40
2021/03/16 08:13:17;;;;;;;30.25;21.23;;;;;;;7.52;64.99;98279.41;1781421;80;21205;-40
2021/03/16 08:16:15;;;;;;;28.95;21.02;;;;;;;7.59;64.91;98276.25;1781464;80;21483;-40
2021/03/16 08:19:14;;;;;;;28.90;20.27;;;;;;;7.61;63.71;98279.34;1779148;80;21497;-40
2021/03/16 08:22:01;;;;;;;34.70;20.72;;;;;;;7.60;63.82;98272.98;1745729;81;21013;-40
2021/03/16 08:24:53;;;;;;;34.30;21.05;;;;;;;7.60;63.98;98260.84;1750390;81;21168;-40
2021/03/16 08:27:39;;;;;;;33.35;21.80;;;;;;;7.65;64.28;98273.41;1754257;79;21151;-41
2021/03/16 08:30:27;;;;;;;35.35;21.75;;;;;;;7.81;65.06;98269.18;1781592;80;22162;-40
2021/03/16 08:33:15;;;;;;;35.00;23.05;;;;;;;8.05;65.07;98271.96;1779878;80;21413;-40
2021/03/16 08:36:02;;;;;;;35.52;22.45;;;;;;;8.32;63.53;98255.13;1778954;80;21024;-40
2021/03/16 08:38:53;;;;;;;35.25;22.05;;;;;;;8.58;62.94;98252.27;1735587;80;21174;-40
2021/03/16 08:41:40;;;;;;;32.73;21.93;;;;;;;8.83;62.28;98253.84;1779047;80;21142;-40
2021/03/16 08:47:27;;;;;;;38.40;22.40;;;;;;;9.32;60.86;98252.83;1814361;79;22796;-40
2021/03/16 08:50:14;;;;;;;33.65;22.13;;;;;;;9.42;60.39;98260.23;1767926;80;21012;-39
2021/03/16 08:53:00;;;;;;;34.10;22.45;;;;;;;9.26;59.95;98217.05;1756419;81;21369;-39
2021/03/16 08:55:49;;;;;;;36.33;23.87;;;;;;;9.72;59.90;98268.13;1756289;81;21076;-39
2021/03/16 08:58:37;;;;;;;37.70;22.17;;;;;;;9.84;58.74;98270.48;1756315;81;21027;-40
2021/03/16 09:01:28;;;;;;;33.28;23.10;;;;;;;9.93;59.22;98264.13;1756294;81;21059;-39
2021/03/16 09:04:17;;;;;;;35.33;22.37;;;;;;;10.00;57.91;98266.88;1756426;81;21031;-39
2021/03/16 09:07:05;;;;;;;33.67;22.30;;;;;;;10.05;58.56;98271.15;1756382;81;21784;-39
2021/03/16 09:09:54;;;;;;;39.48;22.45;;;;;;;10.10;58.07;98265.94;1756219;81;21048;-39
2021/03/16 09:12:42;;;;;;;34.45;22.85;;;;;;;10.10;58.19;98267.30;1732319;81;21031;-39
2021/03/16 09:15:33;;;;;;;38.67;23.37;;;;;;;10.20;58.10;98265.23;1756539;81;21071;-39
2021/03/16 09:18:21;;;;;;;33.50;21.20;;;;;;;10.23;57.47;98264.45;1756691;81;21177;-40
2021/03/16 09:21:09;;;;;;;31.07;21.57;;;;;;;10.24;57.96;98261.37;1756405;80;21200;-39
2021/03/16 09:24:06;;;;;;;34.43;22.20;;;;;;;10.37;58.06;98267.97;1756286;81;21195;-40
2021/03/16 09:26:57;;;;;;;36.55;21.40;;;;;;;10.53;56.74;98266.27;1731412;81;21163;-39
2021/03/16 09:29:44;;;;;;;31.93;21.30;;;;;;;10.68;57.43;98262.41;1756276;80;21150;-41
2021/03/16 09:32:32;;;;;;;35.05;21.70;;;;;;;10.88;56.50;98264.94;1756292;81;21185;-40
2021/03/16 09:35:19;;;;;;;34.60;22.15;;;;;;;10.97;55.95;98263.19;1756370;81;21436;-40
2021/03/16 09:38:07;;;;;;;39.15;21.82;;;;;;;11.02;55.78;98265.51;1725135;83;21150;-41
2021/03/16 09:40:42;;;;;;;29.35;20.20;;;;;;;11.13;55.28;98258.73;1725213;82;21115;-40
2021/03/16 09:43:36;;;;;;;38.80;21.62;;;;;;;11.14;55.38;98257.54;1828673;78;22729;-40
2021/03/16 09:46:10;;;;;;;33.50;20.10;;;;;;;11.02;55.38;98266.09;1803306;79;20965;-39
2021/03/16 09:48:55;;;;;;;35.88;19.67;;;;;;;10.89;55.00;98261.05;1737275;82;22224;-40
2021/03/16 09:51:25;;;;;;;30.65;19.35;;;;;;;10.77;55.98;98269.58;1719124;83;20963;-40
2021/03/16 09:53:57;;;;;;;31.95;20.23;;;;;;;10.67;56.15;98268.20;1748999;82;21034;-40
2021/03/16 09:56:29;;;;;;;32.08;20.82;;;;;;;10.59;55.95;98267.44;1748904;82;21019;-40
2021/03/16 09:58:59;;;;;;;28.65;19.92;;;;;;;10.59;56.13;98266.66;1748804;82;21069;-40
2021/03/16 10:01:28;;;;;;;33.67;19.90;;;;;;;10.62;56.44;98267.23;1774972;80;21324;-40
2021/03/16 10:04:01;;;;;;;31.35;20.02;;;;;;;10.71;56.44;98269.76;1779749;80;21003;-39
2021/03/16 10:06:43;;;;;;;32.13;19.40;;;;;;;10.77;55.97;98264.16;1779854;80;21037;-40
2021/03/16 10:09:16;;;;;;;30.12;19.65;;;;;;;10.84;55.82;98266.85;1779783;80;21178;-40
2021/03/16 10:11:44;;;;;;;30.25;19.50;;;;;;;10.98;55.98;98268.03;1779785;80;21135;-40
2021/03/16 10:14:12;;;;;;;27.80;19.17;;;;;;;11.11;55.31;98263.75;1779787;80;21133;-40
2021/03/16 10:16:40;;;;;;;28.50;18.07;;;;;;;11.15;55.37;98269.94;1717518;82;21150;-40
2021/03/16 10:19:12;;;;;;;31.82;18.62;;;;;;;11.15;54.61;98257.73;1747191;82;21153;-40
2021/03/16 10:21:40;;;;;;;26.90;16.80;;;;;;;10.97;54.30;98272.67;1747548;80;21135;-40
2021/03/16 10:24:09;;;;;;;33.88;18.35;;;;;;;10.87;55.67;98272.88;1779870;80;21122;-40
2021/03/16 10:26:38;;;;;;;24.40;17.37;;;;;;;10.89;55.31;98265.72;1779954;80;21634;-40
2021/03/16 10:29:11;;;;;;;27.50;17.67;;;;;;;10.93;54.52;98255.64;1747371;80;21027;-39
2021/03/16 10:31:40;;;;;;;31.12;17.67;;;;;;;10.96;54.14;98277.13;1779890;80;21027;-40
2021/03/16 10:34:09;;;;;;;29.00;17.82;;;;;;;10.87;54.45;98272.88;1779784;80;21823;-40
2021/03/16 10:36:37;;;;;;;27.62;17.57;;;;;;;10.86;55.22;98273.25;1779829;80;21137;-40
2021/03/16 10:39:06;;;;;;;25.08;18.02;;;;;;;10.83;54.41;98274.81;1779631;80;21202;-40
2021/03/16 10:41:34;;;;;;;27.17;18.50;;;;;;;10.66;54.61;98278.27;1778918;80;21224;-40
2021/03/16 10:44:03;;;;;;;28.52;18.15;;;;;;;10.45;55.11;98273.62;1768763;81;21128;-40
2021/03/16 10:46:31;;;;;;;26.73;17.98;;;;;;;10.27;56.28;98263.87;1768878;81;21181;-40
2021/03/16 10:48:59;;;;;;;27.65;18.87;;;;;;;10.12;56.64;98254.16;1768774;81;21137;-40
2021/03/16 10:51:27;;;;;;;30.00;17.85;;;;;;;10.02;57.28;98248.91;1737397;82;21421;-40
2021/03/16 10:53:55;;;;;;;29.90;18.62;;;;;;;9.92;57.68;98246.33;1736856;82;21138;-40
2021/03/16 10:56:23;;;;;;;26.05;17.25;;;;;;;9.84;57.93;98246.13;1768763;80;21033;-40
2021/03/16 10:58:52;;;;;;;29.50;17.85;;;;;;;9.77;57.95;98243.98;1768725;80;21179;-40
2021/03/16 11:01:20;;;;;;;31.50;19.02;;;;;;;9.71;58.24;98246.27;1744310;81;21137;-39
2021/03/16 11:03:47;;;;;;;30.77;19.35;;;;;;;9.68;58.85;98242.98;1768173;81;21268;-40
2021/03/16 11:06:16;;;;;;;28.40;19.73;;;;;;;9.71;58.97;98235.45;1768815;81;21171;-40
2021/03/16 11:08:44;;;;;;;27.22;18.32;;;;;;;9.78;59.25;98236.81;1768834;80;21186;-40
2021/03/16 11:11:13;;;;;;;34.67;20.05;;;;;;;9.84;59.18;98235.87;1768640;81;21205;-40
2021/03/16 11:13:41;;;;;;;28.35;18.80;;;;;;;9.88;58.81;98238.78;1768743;81;21116;-40
2021/03/16 11:16:10;;;;;;;30.17;19.98;;;;;;;9.91;58.99;98231.27;1768780;81;21188;-40
2021/03/16 11:18:38;;;;;;;30.50;19.65;;;;;;;9.94;59.21;98231.84;1768753;81;21150;-39
2021/03/16 11:21:06;;;;;;;31.70;21.27;;;;;;;9.93;58.93;98237.06;1725748;81;21160;-40
2021/03/16 11:23:34;;;;;;;35.13;22.02;;;;;;;9.86;58.48;98237.05;1724936;83;21154;-39
2021/03/16 11:26:02;;;;;;;30.15;20.48;;;;;;;9.82;59.41;98234.92;1724852;83;21158;-40
2021/03/16 11:28:30;;;;;;;32.70;20.65;;;;;;;9.79;58.88;98237.02;1786965;79;21304;-40
2021/03/16 11:30:58;;;;;;;31.10;20.15;;;;;;;9.73;58.92;98237.17;1803906;79;21417;-40
2021/03/16 11:33:26;;;;;;;35.08;20.17;;;;;;;9.69;59.29;98228.27;1803980;79;21098;-39
2021/03/16 11:36:14;;;;;;;28.90;20.10;;;;;;;9.62;59.39;98229.61;1804107;79;21820;-40
2021/03/16 11:39:01;;;;;;;29.85;19.00;;;;;;;9.53;58.63;98227.83;1779388;79;21194;-39
2021/03/16 11:41:49;;;;;;;28.90;18.87;;;;;;;9.49;58.76;98239.19;1771950;80;21287;-40
2021/03/16 11:44:36;;;;;;;28.85;19.62;;;;;;;9.41;59.22;98229.50;1763518;80;21155;-40
2021/03/16 11:47:23;;;;;;;31.10;20.97;;;;;;;9.39;59.35;98235.88;1763579;80;21111;-40
2021/03/16 11:50:11;;;;;;;37.60;21.52;;;;;;;9.41;59.83;98236.26;1783190;79;21131;-39
2021/03/16 11:52:58;;;;;;;34.85;22.70;;;;;;;9.46;59.93;98230.48;1796593;79;21150;-39
2021/03/16 11:55:45;;;;;;;39.65;24.60;;;;;;;9.53;59.57;98231.89;1795733;79;22053;-39
2021/03/16 11:58:33;;;;;;;36.13;25.85;;;;;;;9.55;59.48;98222.80;1787086;79;21143;-39
2021/03/16 12:01:19;;;;;;;39.60;25.20;;;;;;;9.54;59.20;98219.89;1770146;79;21346;-39
2021/03/16 12:04:06;;;;;;;34.08;24.85;;;;;;;9.21;59.33;98166.02;1765273;80;21195;-39
2021/03/16 12:06:52;;;;;;;37.70;26.55;;;;;;;9.53;59.15;98211.60;1765100;80;21118;-40
2021/03/16 12:09:39;;;;;;;40.80;28.20;;;;;;;9.47;59.16;98204.99;1765348;81;21146;-39
2021/03/16 12:12:26;;;;;;;38.23;24.27;;;;;;;9.38;59.14;98218.09;1765183;81;21127;-40
2021/03/16 12:15:16;;;;;;;33.60;23.20;;;;;;;9.34;59.37;98215.38;1765161;81;21194;-40
2021/03/16 12:18:04;;;;;;;30.40;21.55;;;;;;;9.36;59.91;98217.11;1765130;81;21301;-40
2021/03/16 12:20:51;;;;;;;33.33;22.30;;;;;;;9.35;59.49;98218.26;1785604;79;21122;-41
2021/03/16 12:23:37;;;;;;;35.15;21.15;;;;;;;9.31;59.93;98213.98;1788076;79;21371;-41
2021/03/16 12:26:24;;;;;;;31.90;20.80;;;;;;;9.29;60.10;98222.50;1796556;79;21171;-40
2021/03/16 12:29:10;;;;;;;33.05;22.40;;;;;;;9.24;59.75;98217.45;1765114;81;21170;-40
2021/03/16 12:31:57;;;;;;;34.90;22.55;;;;;;;9.19;60.29;98227.84;1765174;81;21107;-40
2021/03/16 12:34:45;;;;;;;33.92;23.00;;;;;;;9.13;60.44;98224.70;1765091;81;21190;-40
2021/03/16 12:37:31;;;;;;;34.98;21.95;;;;;;;9.11;60.75;98227.78;1765156;81;21341;-40